createdAt,value
2023-02-13T00:00:38.122Z,21.90
2023-02-13T00:03:06.283Z,22.97
2023-02-13T00:05:34.209Z,23.27
2023-02-13T00:08:02.185Z,22.30
2023-02-13T00:10:30.080Z,23.33
2023-02-13T00:12:59.438Z,22.57
2023-02-13T00:15:27.394Z,21.90
2023-02-13T00:17:55.339Z,23.17
2023-02-13T00:20:23.303Z,24.93
2023-02-13T00:22:51.163Z,22.80
2023-02-13T00:25:19.211Z,23.03
2023-02-13T00:27:47.221Z,22.77
2023-02-13T00:30:17.417Z,22.80
2023-02-13T00:32:45.709Z,22.47
2023-02-13T00:35:13.685Z,22.47
2023-02-13T00:37:41.623Z,21.17
2023-02-13T00:40:10.492Z,21.40
2023-02-13T00:42:38.387Z,21.03
2023-02-13T00:45:07.653Z,21.43
2023-02-13T00:47:36.902Z,22.80
2023-02-13T00:50:05.526Z,23.70
2023-02-13T00:52:33.561Z,23.10
2023-02-13T00:55:01.555Z,23.57
2023-02-13T00:57:31.097Z,21.93
2023-02-13T00:59:59.222Z,21.50
2023-02-13T01:02:27.151Z,21.47
2023-02-13T01:04:57.756Z,20.50
2023-02-13T01:07:25.641Z,22.73
2023-02-13T01:09:53.574Z,21.50
2023-02-13T01:12:21.491Z,23.27
2023-02-13T01:14:49.446Z,24.87
2023-02-13T01:17:19.045Z,23.20
2023-02-13T01:19:47.635Z,24.03
2023-02-13T01:22:16.999Z,23.47
2023-02-13T01:24:44.882Z,24.07
2023-02-13T01:27:12.957Z,22.77
2023-02-13T01:29:41.133Z,24.43
2023-02-13T01:32:09.157Z,23.10
2023-02-13T01:34:37.138Z,23.53
2023-02-13T01:37:05.331Z,22.83
2023-02-13T01:39:34.716Z,23.80
2023-02-13T01:42:02.748Z,24.37
2023-02-13T01:44:53.722Z,25.37
2023-02-13T01:47:27.400Z,24.30
2023-02-13T01:50:06.373Z,22.27
2023-02-13T01:52:36.773Z,24.73
2023-02-13T01:55:06.867Z,24.40
2023-02-13T01:57:35.347Z,25.67
2023-02-13T02:00:09.288Z,23.97
2023-02-13T02:02:50.477Z,23.60
2023-02-13T02:05:24.627Z,21.80
2023-02-13T02:07:53.940Z,23.67
2023-02-13T02:10:25.807Z,23.10
2023-02-13T02:13:01.357Z,24.23
2023-02-13T02:15:30.241Z,24.93
2023-02-13T02:17:58.954Z,23.57
2023-02-13T02:20:45.934Z,21.27
2023-02-13T02:23:48.261Z,21.97
2023-02-13T02:26:44.565Z,23.47
2023-02-13T02:29:44.088Z,24.47
2023-02-13T02:32:38.297Z,23.47
2023-02-13T02:35:17.536Z,21.77
2023-02-13T02:37:58.482Z,23.53
2023-02-13T02:40:35.754Z,21.83
2023-02-13T02:43:15.274Z,22.53
2023-02-13T02:45:52.403Z,22.10
2023-02-13T02:48:46.886Z,20.93
2023-02-13T02:51:23.228Z,21.83
2023-02-13T02:54:03.557Z,22.30
2023-02-13T02:56:39.265Z,21.63
2023-02-13T02:59:30.032Z,23.17
2023-02-13T03:02:19.005Z,23.60
2023-02-13T03:05:10.887Z,21.87
2023-02-13T03:07:38.921Z,22.93
2023-02-13T03:10:29.738Z,22.13
2023-02-13T03:13:21.894Z,20.13
2023-02-13T03:16:10.142Z,21.40
2023-02-13T03:19:03.758Z,19.87
2023-02-13T03:22:00.471Z,20.43
2023-02-13T03:24:37.693Z,21.07
2023-02-13T03:27:12.981Z,20.67
2023-02-13T03:30:07.629Z,21.20
2023-02-13T03:32:44.740Z,19.80
2023-02-13T03:35:41.935Z,21.87
2023-02-13T03:38:17.104Z,21.33
2023-02-13T03:41:08.877Z,20.40
2023-02-13T03:43:42.699Z,19.77
2023-02-13T03:46:11.679Z,22.47
2023-02-13T03:49:07.746Z,21.40
2023-02-13T03:51:40.063Z,21.53
2023-02-13T03:54:17.772Z,21.37
2023-02-13T03:57:05.514Z,21.03
2023-02-13T03:59:37.332Z,21.90
2023-02-13T04:02:11.886Z,22.03
2023-02-13T04:04:49.420Z,20.37
2023-02-13T04:07:30.646Z,20.70
2023-02-13T04:10:02.403Z,19.93
2023-02-13T04:12:39.779Z,21.07
2023-02-13T04:15:13.280Z,20.47
2023-02-13T04:17:45.521Z,22.83
2023-02-13T04:20:13.806Z,21.73
2023-02-13T04:22:45.325Z,22.17
2023-02-13T04:25:16.881Z,21.40
2023-02-13T04:27:44.786Z,22.20
2023-02-13T04:30:13.894Z,22.07
2023-02-13T04:32:41.823Z,20.27
2023-02-13T04:35:11.512Z,19.60
2023-02-13T04:37:39.537Z,19.77
2023-02-13T04:40:08.622Z,19.27
2023-02-13T04:42:38.628Z,20.73
2023-02-13T04:45:06.850Z,21.03
2023-02-13T04:47:34.765Z,20.77
2023-02-13T04:50:02.677Z,20.30
2023-02-13T04:52:30.644Z,20.80
2023-02-13T04:54:58.524Z,19.97
2023-02-13T04:57:26.643Z,24.85
2023-02-13T04:59:55.939Z,21.30
2023-02-13T05:02:23.834Z,21.47
2023-02-13T05:04:51.823Z,20.13
2023-02-13T05:07:19.793Z,19.70
2023-02-13T05:09:47.624Z,21.03
2023-02-13T05:12:15.507Z,35.60
2023-02-13T05:14:43.620Z,32.97
2023-02-13T05:17:12.909Z,41.50
2023-02-13T05:19:40.837Z,42.07
2023-02-13T05:22:27.848Z,40.90
2023-02-13T05:24:55.840Z,33.87
2023-02-13T05:27:23.720Z,39.43
2023-02-13T05:29:51.684Z,37.00
2023-02-13T05:32:20.967Z,34.60
2023-02-13T05:34:48.824Z,33.53
2023-02-13T05:37:16.769Z,36.13
2023-02-13T05:39:44.644Z,35.13
2023-02-13T05:42:12.503Z,38.87
2023-02-13T05:44:40.354Z,31.93
2023-02-13T05:47:08.274Z,34.47
2023-02-13T05:49:37.528Z,32.03
2023-02-13T05:52:05.726Z,30.20
2023-02-13T05:54:33.643Z,29.13
2023-02-13T05:57:01.587Z,33.47
2023-02-13T05:59:29.535Z,39.50
2023-02-13T06:01:57.473Z,38.60
2023-02-13T06:04:25.697Z,34.80
2023-02-13T06:06:54.981Z,34.63
2023-02-13T06:09:23.112Z,38.90
2023-02-13T06:11:51.135Z,36.67
2023-02-13T06:14:19.227Z,31.63
2023-02-13T06:16:47.282Z,39.97
2023-02-13T06:19:15.431Z,33.70
2023-02-13T06:21:43.355Z,32.30
2023-02-13T06:24:12.620Z,29.67
2023-02-13T06:26:40.564Z,27.73
2023-02-13T06:29:09.263Z,30.37
2023-02-13T06:31:37.205Z,30.17
2023-02-13T06:34:05.219Z,28.43
2023-02-13T06:36:33.145Z,32.63
2023-02-13T06:39:01.129Z,27.70
2023-02-13T06:41:30.394Z,30.03
2023-02-13T06:43:58.272Z,25.80
2023-02-13T06:46:26.308Z,26.60
2023-02-13T06:48:54.178Z,25.93
2023-02-13T06:51:22.086Z,24.57
2023-02-13T06:53:50.033Z,26.10
2023-02-13T06:56:17.918Z,28.50
2023-02-13T06:58:47.140Z,33.80
2023-02-13T07:01:15.135Z,23.13
2023-02-13T07:03:43.104Z,23.37
2023-02-13T07:06:10.975Z,25.30
2023-02-13T07:08:38.823Z,22.93
2023-02-13T07:11:06.775Z,21.13
2023-02-13T07:13:34.640Z,24.37
2023-02-13T07:16:03.981Z,23.10
2023-02-13T07:18:31.935Z,20.70
2023-02-13T07:20:59.969Z,24.60
2023-02-13T07:23:27.871Z,21.43
2023-02-13T07:25:55.831Z,24.83
2023-02-13T07:28:23.904Z,23.80
2023-02-13T07:30:51.826Z,23.20
2023-02-13T07:33:25.750Z,22.30
2023-02-13T07:35:53.886Z,24.43
2023-02-13T07:38:21.853Z,22.73
2023-02-13T07:40:49.719Z,22.30
2023-02-13T07:43:17.735Z,22.77
2023-02-13T07:45:46.940Z,23.40
2023-02-13T07:48:14.924Z,25.70
2023-02-13T07:50:44.212Z,21.97
2023-02-13T07:53:12.119Z,20.90
2023-02-13T07:55:40.017Z,23.53
2023-02-13T07:58:08.019Z,20.93
2023-02-13T08:00:35.968Z,21.67
2023-02-13T08:03:22.775Z,21.07
2023-02-13T08:05:52.036Z,21.50
2023-02-13T08:08:19.968Z,17.93
2023-02-13T08:11:05.265Z,16.37
2023-02-13T08:13:33.716Z,18.67
2023-02-13T08:16:01.701Z,15.63
2023-02-13T08:18:29.699Z,17.93
2023-02-13T08:20:58.979Z,14.13
2023-02-13T08:23:27.025Z,15.57
2023-02-13T08:25:55.924Z,15.73
2023-02-13T08:28:24.568Z,15.00
2023-02-13T08:30:52.645Z,14.30
2023-02-13T08:33:20.671Z,16.83
2023-02-13T08:35:48.675Z,13.40
2023-02-13T08:38:17.950Z,14.33
2023-02-13T08:40:45.911Z,15.53
2023-02-13T08:43:13.828Z,15.07
2023-02-13T08:45:41.792Z,15.53
2023-02-13T08:48:09.865Z,16.10
2023-02-13T08:50:37.998Z,16.63
2023-02-13T08:53:06.215Z,15.63
2023-02-13T08:55:35.556Z,14.00
2023-02-13T08:58:04.750Z,13.50
2023-02-13T09:00:33.069Z,14.57
2023-02-13T09:03:03.169Z,15.17
2023-02-13T09:05:32.620Z,16.47
2023-02-13T09:08:02.683Z,15.93
2023-02-13T09:10:30.989Z,14.83
2023-02-13T09:13:01.289Z,16.10
2023-02-13T09:15:29.247Z,16.17
2023-02-13T09:17:57.268Z,16.70
2023-02-13T09:20:25.682Z,15.70
2023-02-13T09:22:53.612Z,16.20
2023-02-13T09:25:21.686Z,16.43
2023-02-13T09:27:49.606Z,17.93
2023-02-13T09:30:23.482Z,17.37
2023-02-13T09:32:52.345Z,17.43
2023-02-13T09:35:20.554Z,17.53
2023-02-13T09:37:48.658Z,17.20
2023-02-13T09:40:26.100Z,17.93
2023-02-13T09:42:56.391Z,17.63
2023-02-13T09:45:25.794Z,16.43
2023-02-13T09:47:53.793Z,16.43
2023-02-13T09:50:25.493Z,17.27
2023-02-13T09:52:56.188Z,17.77
2023-02-13T09:55:28.193Z,17.60
2023-02-13T09:58:04.382Z,17.73
2023-02-13T10:00:38.695Z,18.40
2023-02-13T10:03:22.577Z,17.97
2023-02-13T10:06:09.062Z,19.90
2023-02-13T10:09:00.391Z,19.17
2023-02-13T10:11:40.965Z,16.93
2023-02-13T10:14:17.161Z,17.80
2023-02-13T10:16:51.658Z,18.83
2023-02-13T10:19:33.361Z,16.57
2023-02-13T10:22:06.170Z,18.47
2023-02-13T10:24:39.954Z,16.17
2023-02-13T10:27:22.377Z,16.67
2023-02-13T10:30:09.536Z,16.87
2023-02-13T10:32:45.735Z,15.80
2023-02-13T10:35:25.496Z,16.40
2023-02-13T10:37:57.133Z,16.23
2023-02-13T10:40:32.993Z,15.43
2023-02-13T10:43:08.433Z,15.93
2023-02-13T10:46:01.122Z,14.10
2023-02-13T10:48:58.023Z,14.47
2023-02-13T10:51:31.090Z,15.07
2023-02-13T10:54:19.392Z,16.30
2023-02-13T10:56:54.693Z,14.70
2023-02-13T10:59:44.218Z,16.07
2023-02-13T11:02:24.148Z,15.57
2023-02-13T11:04:58.631Z,16.03
2023-02-13T11:07:28.358Z,14.90
2023-02-13T11:10:01.052Z,15.30
2023-02-13T11:12:31.037Z,13.63
2023-02-13T11:15:00.661Z,14.20
2023-02-13T11:17:32.330Z,13.23
2023-02-13T11:20:03.712Z,13.47
2023-02-13T11:22:35.050Z,14.40
2023-02-13T11:25:07.734Z,12.27
2023-02-13T11:27:39.134Z,12.53
2023-02-13T11:30:28.678Z,13.37
2023-02-13T11:33:00.122Z,12.93
2023-02-13T11:35:32.627Z,11.90
2023-02-13T11:38:21.287Z,11.77
2023-02-13T11:40:54.003Z,10.43
2023-02-13T11:43:29.869Z,10.73
2023-02-13T11:46:06.485Z,10.23
2023-02-13T11:48:34.870Z,10.67
2023-02-13T11:51:04.935Z,10.43
2023-02-13T11:53:37.807Z,10.50
2023-02-13T11:56:09.182Z,10.30
2023-02-13T11:58:37.732Z,9.97
2023-02-13T12:01:11.788Z,10.33
2023-02-13T12:03:42.158Z,10.07
2023-02-13T12:06:15.908Z,10.33
2023-02-13T12:08:46.882Z,10.87
2023-02-13T12:11:23.348Z,10.93
2023-02-13T12:13:52.524Z,11.37
2023-02-13T12:16:30.253Z,11.57
2023-02-13T12:19:01.741Z,11.80
2023-02-13T12:21:44.502Z,10.57
2023-02-13T12:24:28.157Z,10.27
2023-02-13T12:27:04.706Z,11.37
2023-02-13T12:30:05.146Z,11.90
2023-02-13T12:32:43.300Z,11.27
2023-02-13T12:35:35.743Z,11.23
2023-02-13T12:38:11.127Z,10.77
2023-02-13T12:41:01.968Z,11.93
2023-02-13T12:43:52.734Z,12.40
2023-02-13T12:46:29.824Z,11.20
2023-02-13T12:49:06.916Z,11.10
2023-02-13T12:51:46.222Z,11.67
2023-02-13T12:54:35.248Z,11.73
2023-02-13T12:57:31.525Z,11.03
2023-02-13T13:00:14.744Z,11.53
2023-02-13T13:02:53.236Z,10.93
2023-02-13T13:05:32.223Z,10.80
2023-02-13T13:08:21.942Z,10.83
2023-02-13T13:11:02.578Z,10.40
2023-02-13T13:13:44.141Z,10.90
2023-02-13T13:16:20.955Z,11.50
2023-02-13T13:19:04.015Z,10.93
2023-02-13T13:21:42.368Z,11.30
2023-02-13T13:24:30.312Z,10.00
2023-02-13T13:27:01.710Z,9.97
2023-02-13T13:29:37.822Z,9.50
2023-02-13T13:32:09.493Z,10.13
2023-02-13T13:34:40.066Z,9.13
2023-02-13T13:37:14.753Z,9.40
2023-02-13T13:39:52.336Z,9.07
2023-02-13T13:42:28.555Z,8.17
2023-02-13T13:45:09.746Z,8.93
2023-02-13T13:47:48.952Z,9.53
2023-02-13T13:50:25.662Z,8.90
2023-02-13T13:53:19.729Z,10.10
2023-02-13T13:56:09.163Z,9.30
2023-02-13T13:58:41.963Z,8.70
2023-02-13T14:01:23.335Z,8.93
2023-02-13T14:03:52.629Z,8.97
2023-02-13T14:06:22.573Z,9.47
2023-02-13T14:09:28.867Z,9.07
2023-02-13T14:12:02.341Z,9.00
2023-02-13T14:14:53.035Z,8.83
2023-02-13T14:17:55.406Z,8.33
2023-02-13T14:20:33.988Z,9.17
2023-02-13T14:23:23.418Z,9.23
2023-02-13T14:25:52.278Z,9.07
2023-02-13T14:28:24.950Z,8.67
2023-02-13T14:30:56.721Z,8.57
2023-02-13T14:33:28.418Z,8.37
2023-02-13T14:36:05.514Z,8.00
2023-02-13T14:38:34.860Z,9.17
2023-02-13T14:41:03.982Z,8.53
2023-02-13T14:43:41.335Z,8.30
2023-02-13T14:46:19.587Z,9.10
2023-02-13T14:48:53.483Z,8.53
2023-02-13T14:51:28.761Z,9.07
2023-02-13T14:54:02.453Z,8.60
2023-02-13T14:56:31.639Z,8.83
2023-02-13T14:59:11.241Z,8.80
2023-02-13T15:01:47.267Z,8.97
2023-02-13T15:04:21.882Z,9.70
2023-02-13T15:06:50.759Z,9.03
2023-02-13T15:09:33.301Z,9.57
2023-02-13T15:12:01.759Z,9.10
2023-02-13T15:14:36.183Z,9.90
2023-02-13T15:17:11.188Z,10.27
2023-02-13T15:19:44.673Z,9.67
2023-02-13T15:22:21.206Z,9.77
2023-02-13T15:24:50.503Z,9.53
2023-02-13T15:27:22.929Z,9.23
2023-02-13T15:30:04.187Z,8.83
2023-02-13T15:32:36.836Z,8.80
2023-02-13T15:35:22.056Z,9.03
2023-02-13T15:37:50.011Z,8.97
2023-02-13T15:40:24.178Z,9.03
2023-02-13T15:42:52.826Z,9.40
2023-02-13T15:45:23.880Z,8.90
2023-02-13T15:47:52.772Z,8.80
2023-02-13T15:50:25.657Z,9.73
2023-02-13T15:52:54.225Z,8.93
2023-02-13T15:55:25.102Z,9.63
2023-02-13T15:57:56.646Z,9.47
2023-02-13T16:00:29.127Z,9.20
2023-02-13T16:02:59.271Z,9.20
2023-02-13T16:05:39.490Z,11.00
2023-02-13T16:08:43.744Z,10.20
2023-02-13T16:11:27.471Z,10.77
2023-02-13T16:14:02.152Z,12.27
2023-02-13T16:16:34.602Z,16.03
2023-02-13T16:19:02.839Z,19.00
2023-02-13T16:21:34.399Z,11.93
2023-02-13T16:24:07.229Z,11.33
2023-02-13T16:26:39.118Z,13.13
2023-02-13T16:29:11.459Z,13.20
2023-02-13T16:31:41.763Z,17.93
2023-02-13T16:34:23.906Z,14.67
2023-02-13T16:36:52.151Z,17.40
2023-02-13T16:39:24.499Z,14.23
2023-02-13T16:41:53.094Z,12.97
2023-02-13T16:44:29.499Z,12.23
2023-02-13T16:47:01.459Z,9.03
2023-02-13T16:49:32.553Z,9.63
2023-02-13T16:52:09.077Z,8.97
2023-02-13T16:54:38.911Z,8.53
2023-02-13T16:57:21.367Z,9.50
2023-02-13T17:00:09.649Z,9.73
2023-02-13T17:02:40.923Z,9.10
2023-02-13T17:05:20.929Z,9.57
2023-02-13T17:07:50.969Z,9.63
2023-02-13T17:10:21.739Z,9.13
2023-02-13T17:12:51.037Z,9.33
2023-02-13T17:15:21.928Z,8.97
2023-02-13T17:17:52.111Z,9.33
2023-02-13T17:20:22.255Z,9.50
2023-02-13T17:22:51.860Z,9.60
2023-02-13T17:25:23.101Z,9.33
2023-02-13T17:27:52.133Z,9.20
2023-02-13T17:30:22.168Z,9.87
2023-02-13T17:32:58.193Z,10.27
2023-02-13T17:35:26.356Z,10.20
2023-02-13T17:37:54.308Z,9.90
2023-02-13T17:40:25.283Z,9.77
2023-02-13T17:42:55.518Z,10.33
2023-02-13T17:45:25.377Z,10.40
2023-02-13T17:47:55.307Z,10.07
2023-02-13T17:50:23.741Z,9.70
2023-02-13T17:52:52.190Z,10.10
2023-02-13T17:55:22.319Z,9.90
2023-02-13T17:57:50.620Z,9.80
2023-02-13T18:00:21.147Z,9.77
2023-02-13T18:02:50.113Z,10.40
2023-02-13T18:05:20.355Z,10.27
2023-02-13T18:07:48.872Z,10.37
2023-02-13T18:10:18.826Z,10.67
2023-02-13T18:12:47.868Z,10.87
2023-02-13T18:15:16.237Z,10.83
2023-02-13T18:17:44.951Z,11.37
2023-02-13T18:20:15.447Z,10.70
2023-02-13T18:22:45.076Z,10.63
2023-02-13T18:25:14.336Z,11.77
2023-02-13T18:27:42.285Z,11.80
2023-02-13T18:30:12.813Z,11.03
2023-02-13T18:32:40.823Z,12.07
2023-02-13T18:35:09.685Z,13.23
2023-02-13T18:37:39.157Z,12.70
2023-02-13T18:40:10.093Z,11.63
2023-02-13T18:42:38.805Z,12.53
2023-02-13T18:45:07.427Z,12.97
2023-02-13T18:47:35.488Z,12.33
2023-02-13T18:50:03.377Z,14.47
2023-02-13T18:52:31.263Z,13.50
2023-02-13T18:54:59.179Z,14.73
2023-02-13T18:57:28.575Z,29.13
2023-02-13T18:59:56.537Z,22.90
2023-02-13T19:02:24.532Z,18.83
2023-02-13T19:04:52.473Z,19.17
2023-02-13T19:07:20.353Z,16.03
2023-02-13T19:09:48.640Z,15.50
2023-02-13T19:12:16.656Z,13.37
2023-02-13T19:14:45.964Z,15.47
2023-02-13T19:17:13.890Z,17.43
2023-02-13T19:19:41.854Z,14.97
2023-02-13T19:22:09.724Z,15.40
2023-02-13T19:24:37.664Z,17.27
2023-02-13T19:27:05.547Z,14.70
2023-02-13T19:29:33.607Z,15.63
2023-02-13T19:32:02.917Z,15.07
2023-02-13T19:34:31.291Z,13.70
2023-02-13T19:36:59.223Z,13.40
2023-02-13T19:39:27.326Z,13.50
2023-02-13T19:41:55.226Z,11.60
2023-02-13T19:44:23.307Z,11.50
2023-02-13T19:46:51.375Z,12.50
2023-02-13T19:49:22.429Z,12.63
2023-02-13T19:51:50.425Z,14.60
2023-02-13T19:54:18.413Z,13.10
2023-02-13T19:56:47.540Z,13.30
2023-02-13T19:59:15.486Z,13.33
2023-02-13T20:01:43.500Z,13.50
2023-02-13T20:04:11.840Z,12.90
2023-02-13T20:06:41.185Z,14.10
2023-02-13T20:09:12.903Z,28.43
2023-02-13T20:11:41.651Z,15.47
2023-02-13T20:14:14.507Z,14.77
2023-02-13T20:16:42.980Z,15.53
2023-02-13T20:19:13.567Z,17.47
2023-02-13T20:21:43.940Z,19.70
2023-02-13T20:24:13.011Z,18.97
2023-02-13T20:26:41.532Z,19.30
2023-02-13T20:29:09.687Z,18.40
2023-02-13T20:31:41.139Z,24.90
2023-02-13T20:34:09.883Z,21.50
2023-02-13T20:36:37.843Z,19.57
2023-02-13T20:39:08.657Z,19.03
2023-02-13T20:41:38.619Z,18.83
2023-02-13T20:44:08.288Z,18.77
2023-02-13T20:46:38.734Z,18.57
2023-02-13T20:49:07.425Z,24.17
2023-02-13T20:51:35.987Z,24.00
2023-02-13T20:54:04.274Z,22.67
2023-02-13T20:56:33.713Z,21.17
2023-02-13T20:59:02.515Z,19.07
2023-02-13T21:01:33.157Z,20.53
2023-02-13T21:04:01.631Z,22.27
2023-02-13T21:06:32.254Z,20.70
2023-02-13T21:09:00.299Z,23.33
2023-02-13T21:11:29.333Z,21.00
2023-02-13T21:13:59.265Z,19.37
2023-02-13T21:16:29.375Z,19.17
2023-02-13T21:18:59.978Z,20.63
2023-02-13T21:21:29.792Z,23.03
2023-02-13T21:23:59.117Z,21.00
2023-02-13T21:26:30.554Z,20.43
2023-02-13T21:29:00.683Z,18.43
2023-02-13T21:31:31.841Z,18.33
2023-02-13T21:34:00.579Z,18.03
2023-02-13T21:36:28.470Z,17.87
2023-02-13T21:38:56.826Z,17.97
2023-02-13T21:41:25.027Z,18.47
2023-02-13T21:43:53.046Z,18.17
2023-02-13T21:46:24.045Z,18.17
2023-02-13T21:48:54.476Z,19.40
2023-02-13T21:51:23.449Z,22.23
2023-02-13T21:53:52.095Z,22.80
2023-02-13T21:56:21.607Z,21.77
2023-02-13T21:58:49.930Z,21.97
2023-02-13T22:01:26.616Z,20.50
2023-02-13T22:04:00.520Z,22.43
2023-02-13T22:06:30.792Z,23.47
2023-02-13T22:08:59.822Z,23.80
2023-02-13T22:11:28.606Z,24.23
2023-02-13T22:13:57.434Z,23.13
2023-02-13T22:16:25.815Z,24.33
2023-02-13T22:18:53.785Z,24.83
2023-02-13T22:21:25.368Z,25.63
2023-02-13T22:23:53.920Z,26.47
2023-02-13T22:26:24.504Z,24.70
2023-02-13T22:28:53.410Z,22.67
2023-02-13T22:31:25.369Z,22.73
2023-02-13T22:34:03.353Z,23.37
2023-02-13T22:36:33.457Z,23.73
2023-02-13T22:39:01.482Z,24.00
2023-02-13T22:41:29.657Z,24.23
2023-02-13T22:43:58.524Z,25.73
2023-02-13T22:46:29.072Z,24.17
2023-02-13T22:48:57.119Z,24.70
2023-02-13T22:51:27.249Z,24.50
2023-02-13T22:53:57.839Z,21.63
2023-02-13T22:56:27.296Z,24.57
2023-02-13T22:58:55.464Z,24.03
2023-02-13T23:01:25.588Z,25.40
2023-02-13T23:03:53.596Z,25.47
2023-02-13T23:06:21.668Z,25.47
2023-02-13T23:08:52.277Z,25.10
2023-02-13T23:11:40.930Z,23.77
2023-02-13T23:14:10.079Z,23.10
2023-02-13T23:16:53.088Z,24.83
2023-02-13T23:19:21.653Z,24.33
2023-02-13T23:21:49.933Z,24.30
2023-02-13T23:24:17.949Z,24.27
2023-02-13T23:26:47.280Z,25.07
2023-02-13T23:29:15.176Z,24.57
2023-02-13T23:31:43.208Z,22.70
2023-02-13T23:34:11.242Z,23.40
2023-02-13T23:36:39.245Z,22.07
2023-02-13T23:39:07.210Z,22.67
2023-02-13T23:41:35.198Z,22.50
2023-02-13T23:44:04.531Z,21.33
2023-02-13T23:46:32.786Z,22.60
2023-02-13T23:49:00.801Z,23.50
2023-02-13T23:51:28.664Z,23.93
2023-02-13T23:53:57.370Z,23.17
2023-02-13T23:56:26.572Z,23.37
2023-02-13T23:58:56.636Z,22.23
